createdAt,value
2022-11-10T00:00:21.308Z,101266.06
2022-11-10T00:04:01.659Z,101260.75
2022-11-10T00:07:42.419Z,101269.47
2022-11-10T00:11:23.745Z,101265.97
2022-11-10T00:15:24.110Z,101265.69
2022-11-10T00:19:04.691Z,101279.91
2022-11-10T00:22:44.986Z,101282.59
2022-11-10T00:26:25.269Z,101278.22
2022-11-10T00:30:08.063Z,101284.41
2022-11-10T00:33:48.504Z,101288.91
2022-11-10T00:37:28.978Z,101282.97
2022-11-10T00:41:09.197Z,101287.47
2022-11-10T00:44:49.477Z,101289.16
2022-11-10T00:48:31.002Z,101288.31
2022-11-10T00:52:11.443Z,101290.28
2022-11-10T00:55:52.117Z,101295.47
2022-11-10T00:59:32.893Z,101292.81
2022-11-10T01:03:15.699Z,101300.81
2022-11-10T01:06:57.608Z,101298.88
2022-11-10T01:10:38.216Z,101298.28
2022-11-10T01:14:18.495Z,101308.00
2022-11-10T01:17:58.912Z,101301.53
2022-11-10T01:21:39.359Z,101308.56
2022-11-10T01:25:22.160Z,101316.59
2022-11-10T01:29:04.318Z,101321.00
2022-11-10T01:32:44.692Z,101321.00
2022-11-10T01:36:24.958Z,101322.06
2022-11-10T01:40:06.356Z,101321.94
2022-11-10T01:43:48.579Z,101329.94
2022-11-10T01:47:29.569Z,101335.44
2022-11-10T01:51:13.356Z,101334.47
2022-11-10T01:54:53.886Z,101343.47
2022-11-10T01:58:40.240Z,101341.75
2022-11-10T02:02:28.263Z,101350.50
2022-11-10T02:06:09.167Z,101360.22
2022-11-10T02:09:50.001Z,101360.31
2022-11-10T02:13:30.551Z,101357.91
2022-11-10T02:17:11.266Z,101363.25
2022-11-10T02:20:53.342Z,101357.19
2022-11-10T02:24:34.304Z,101366.78
2022-11-10T02:28:14.679Z,101379.03
2022-11-10T02:31:55.323Z,101385.50
2022-11-10T02:35:35.704Z,101384.25
2022-11-10T02:39:17.849Z,101381.84
2022-11-10T02:42:59.288Z,101392.41
2022-11-10T02:46:39.821Z,101397.75
2022-11-10T02:50:20.202Z,101398.88
2022-11-10T02:54:00.760Z,101400.81
2022-11-10T02:57:42.558Z,101399.84
2022-11-10T03:01:23.149Z,101410.53
2022-11-10T03:05:04.113Z,101412.47
2022-11-10T03:08:44.903Z,101415.88
2022-11-10T03:12:25.586Z,101413.06
2022-11-10T03:16:08.046Z,101429.94
2022-11-10T03:19:49.240Z,101423.63
2022-11-10T03:23:29.298Z,101436.84
2022-11-10T03:27:09.869Z,101442.19
2022-11-10T03:30:50.297Z,101435.91
2022-11-10T03:34:32.399Z,101443.31
2022-11-10T03:38:12.658Z,101447.78
2022-11-10T03:41:53.028Z,101463.97
2022-11-10T03:45:33.126Z,101465.66
2022-11-10T03:49:13.262Z,101468.34
2022-11-10T03:52:54.978Z,101466.66
2022-11-10T03:56:35.471Z,101479.03
2022-11-10T04:00:16.810Z,101472.00
2022-11-10T04:03:57.589Z,101476.38
2022-11-10T04:07:55.551Z,101485.81
2022-11-10T04:11:54.770Z,101495.66
2022-11-10T04:15:44.123Z,101493.63
2022-11-10T04:19:24.607Z,101509.66
2022-11-10T04:23:22.395Z,101506.25
2022-11-10T04:27:04.537Z,101516.94
2022-11-10T04:30:45.585Z,101514.28
2022-11-10T04:34:26.063Z,101532.38
2022-11-10T04:38:06.370Z,101521.09
2022-11-10T04:41:47.332Z,101538.94
2022-11-10T04:45:29.153Z,101540.41
2022-11-10T04:49:09.547Z,101536.78
2022-11-10T04:52:50.194Z,101539.56
2022-11-10T04:56:30.741Z,101550.38
2022-11-10T05:00:12.794Z,101561.78
2022-11-10T05:03:55.551Z,101554.50
2022-11-10T05:07:35.667Z,101560.91
2022-11-10T05:11:16.049Z,101564.56
2022-11-10T05:14:56.776Z,101570.06
2022-11-10T05:18:37.379Z,101578.91
2022-11-10T05:22:19.324Z,101589.00
2022-11-10T05:25:59.617Z,101593.00
2022-11-10T05:29:39.845Z,101599.56
2022-11-10T05:33:20.560Z,101613.97
2022-11-10T05:37:01.663Z,101608.78
2022-11-10T05:40:43.476Z,101624.06
2022-11-10T05:44:23.933Z,101632.09
2022-11-10T05:48:04.547Z,101639.63
2022-11-10T05:51:44.865Z,101654.91
2022-11-10T05:55:27.334Z,101660.84
2022-11-10T05:59:09.183Z,101671.94
2022-11-10T06:02:58.720Z,101683.72
2022-11-10T06:06:39.401Z,101688.31
2022-11-10T06:10:19.708Z,101702.00
2022-11-10T06:14:00.911Z,101703.84
2022-11-10T06:17:43.619Z,101714.50
2022-11-10T06:21:24.284Z,101722.75
2022-11-10T06:25:05.129Z,101731.97
2022-11-10T06:28:45.803Z,101734.13
2022-11-10T06:32:26.215Z,101745.88
2022-11-10T06:36:08.450Z,101758.47
2022-11-10T06:39:48.495Z,101763.06
2022-11-10T06:43:28.690Z,101774.72
2022-11-10T06:47:09.211Z,101777.47
2022-11-10T06:50:50.103Z,101788.28
2022-11-10T06:54:32.216Z,101791.06
2022-11-10T06:58:12.616Z,101810.69
2022-11-10T07:01:52.861Z,101818.94
2022-11-10T07:05:34.660Z,101818.19
2022-11-10T07:09:15.818Z,101829.94
2022-11-10T07:13:02.301Z,101831.09
2022-11-10T07:16:42.783Z,101838.28
2022-11-10T07:20:23.700Z,101851.72
2022-11-10T07:24:04.558Z,101857.78
2022-11-10T07:27:45.016Z,101855.03
2022-11-10T07:31:26.610Z,101865.59
2022-11-10T07:35:07.462Z,101860.25
2022-11-10T07:38:47.866Z,101871.69
2022-11-10T07:42:28.079Z,101869.00
2022-11-10T07:46:08.467Z,101879.56
2022-11-10T07:49:50.262Z,101888.44
2022-11-10T07:53:30.611Z,101897.16
2022-11-10T07:57:11.300Z,101901.41
2022-11-10T08:00:52.551Z,101905.06
2022-11-10T08:04:33.231Z,101908.69
2022-11-10T08:08:15.494Z,101910.59
2022-11-10T08:11:56.026Z,101912.09
2022-11-10T08:15:37.084Z,101914.66
2022-11-10T08:19:17.493Z,101920.84
2022-11-10T08:23:00.007Z,101926.09
2022-11-10T08:26:42.078Z,101926.09
2022-11-10T08:30:22.348Z,101927.03
2022-11-10T08:34:02.783Z,101936.00
2022-11-10T08:37:43.057Z,101948.16
2022-11-10T08:41:23.240Z,101952.53
2022-11-10T08:45:05.191Z,101952.66
2022-11-10T08:48:45.775Z,101957.00
2022-11-10T08:52:26.408Z,101958.72
2022-11-10T08:56:07.774Z,101973.59
2022-11-10T08:59:48.545Z,101970.47
2022-11-10T09:03:30.507Z,101979.97
2022-11-10T09:07:10.845Z,101994.28
2022-11-10T09:10:51.458Z,102002.16
2022-11-10T09:14:31.841Z,102015.63
2022-11-10T09:18:14.248Z,102019.03
2022-11-10T09:21:56.269Z,102020.53
2022-11-10T09:25:37.603Z,102022.25
2022-11-10T09:29:18.660Z,102031.66
2022-11-10T09:33:01.222Z,102021.53
2022-11-10T09:36:42.119Z,102034.31
2022-11-10T09:40:39.817Z,102032.28
2022-11-10T09:44:30.998Z,102042.97
2022-11-10T09:48:20.881Z,102043.19
2022-11-10T09:52:03.375Z,102046.16
2022-11-10T09:55:50.784Z,102053.00
2022-11-10T09:59:33.427Z,102036.66
2022-11-10T10:03:19.542Z,102044.34
2022-11-10T10:07:12.160Z,102046.59
2022-11-10T10:11:05.058Z,102052.44
2022-11-10T10:15:09.702Z,102043.13
2022-11-10T10:20:04.028Z,102051.78
2022-11-10T10:24:58.851Z,102053.81
2022-11-10T10:34:01.495Z,102055.16
2022-11-10T10:37:46.376Z,102055.78
2022-11-10T10:41:52.448Z,102065.28
2022-11-10T10:45:42.472Z,102058.53
2022-11-10T10:49:28.984Z,102055.53
2022-11-10T10:53:15.353Z,102057.97
2022-11-10T10:57:04.472Z,102061.03
2022-11-10T11:00:53.112Z,102067.75
2022-11-10T11:04:37.902Z,102080.78
2022-11-10T11:08:19.441Z,102068.88
2022-11-10T11:12:11.634Z,102076.56
2022-11-10T11:16:07.774Z,102081.56
2022-11-10T11:19:57.096Z,102076.22
2022-11-10T11:24:17.608Z,102080.88
2022-11-10T11:28:10.282Z,102089.75
2022-11-10T11:32:05.115Z,102094.16
2022-11-10T11:35:52.662Z,102098.28
2022-11-10T11:39:47.311Z,102090.03
2022-11-10T11:43:47.486Z,102096.25
2022-11-10T11:47:43.352Z,102099.13
2022-11-10T11:51:31.668Z,102097.00
2022-11-10T11:55:23.805Z,102095.66
2022-11-10T11:59:21.557Z,102088.34
2022-11-10T12:03:40.597Z,102092.88
2022-11-10T12:07:45.154Z,102109.66
2022-11-10T12:11:39.848Z,102108.78
2022-11-10T12:15:30.859Z,102114.38
2022-11-10T12:19:24.821Z,102106.09
2022-11-10T12:23:16.900Z,102114.00
2022-11-10T12:27:00.889Z,102108.66
2022-11-10T12:30:44.675Z,102110.13
2022-11-10T12:34:33.124Z,102107.47
2022-11-10T12:38:21.890Z,102123.28
2022-11-10T12:42:05.441Z,102131.06
2022-11-10T12:45:50.804Z,102145.09
2022-11-10T12:49:36.083Z,102143.06
2022-11-10T12:53:23.774Z,102149.88
2022-11-10T12:57:09.675Z,102159.25
2022-11-10T13:00:57.979Z,102155.22
2022-11-10T13:04:40.336Z,102157.56
2022-11-10T13:08:58.795Z,102157.56
2022-11-10T13:13:08.065Z,102159.28
2022-11-10T13:16:54.596Z,102160.97
2022-11-10T13:20:57.774Z,102167.16
2022-11-10T13:24:44.872Z,102166.19
2022-11-10T13:28:58.804Z,102163.44
2022-11-10T13:32:43.540Z,102174.97
2022-11-10T13:36:38.391Z,102171.47
2022-11-10T13:40:31.125Z,102166.94
2022-11-10T13:44:24.703Z,102170.97
2022-11-10T13:48:20.130Z,102170.75
2022-11-10T13:52:13.886Z,102189.38
2022-11-10T13:56:19.375Z,102194.00
2022-11-10T14:00:02.386Z,102190.97
2022-11-10T14:04:04.070Z,102197.19
2022-11-10T14:07:51.971Z,102204.00
2022-11-10T14:11:50.409Z,102218.13
2022-11-10T14:15:41.090Z,102217.06
2022-11-10T14:19:31.449Z,102226.91
2022-11-10T14:23:32.510Z,102228.72
2022-11-10T14:27:28.701Z,102224.47
2022-11-10T14:35:57.192Z,102226.63
2022-11-10T14:39:38.539Z,102231.88
2022-11-10T14:43:30.420Z,102236.63
2022-11-10T14:47:40.079Z,102255.34
2022-11-10T14:51:20.699Z,102263.16
2022-11-10T14:55:04.916Z,102278.25
2022-11-10T14:58:48.529Z,102279.00
2022-11-10T15:02:45.900Z,102290.66
2022-11-10T15:06:26.947Z,102297.72
2022-11-10T15:10:30.231Z,102302.22
2022-11-10T15:23:06.312Z,102313.56
2022-11-10T15:26:53.922Z,102320.00
2022-11-10T15:30:36.876Z,102318.19
2022-11-10T15:35:07.002Z,102318.28
2022-11-10T15:39:13.443Z,102321.84
2022-11-10T15:43:20.562Z,102317.44
2022-11-10T15:51:27.482Z,102317.91
2022-11-10T15:55:20.571Z,102311.06
2022-11-10T15:59:02.759Z,102314.81
2022-11-10T16:02:44.650Z,102309.78
2022-11-10T16:06:24.823Z,102322.44
2022-11-10T16:10:06.166Z,102328.00
2022-11-10T16:13:47.450Z,102318.50
2022-11-10T16:17:28.028Z,102317.88
2022-11-10T16:21:13.166Z,102322.59
2022-11-10T16:24:53.282Z,102325.69
2022-11-10T16:28:33.483Z,102331.34
2022-11-10T16:32:13.683Z,102332.75
2022-11-10T16:35:55.906Z,102347.41
2022-11-10T16:39:38.091Z,102353.13
2022-11-10T16:43:19.801Z,102358.78
2022-11-10T16:47:00.539Z,102363.59
2022-11-10T16:50:41.228Z,102360.41
2022-11-10T16:54:22.051Z,102367.13
2022-11-10T16:58:03.884Z,102362.19
2022-11-10T17:01:46.493Z,102358.88
2022-11-10T17:05:27.107Z,102369.69
2022-11-10T17:09:11.103Z,102371.59
2022-11-10T17:12:51.680Z,102381.53
2022-11-10T17:16:37.233Z,102385.31
2022-11-10T17:20:20.893Z,102396.31
2022-11-10T17:24:01.864Z,102397.34
2022-11-10T17:27:43.062Z,102406.31
2022-11-10T17:31:23.640Z,102409.88
2022-11-10T17:35:05.894Z,102415.22
2022-11-10T17:38:47.213Z,102421.41
2022-11-10T17:42:28.100Z,102409.88
2022-11-10T17:46:09.050Z,102408.91
2022-11-10T17:49:49.649Z,102403.56
2022-11-10T17:53:31.288Z,102410.53
2022-11-10T17:57:12.002Z,102401.44
2022-11-10T18:00:52.714Z,102407.44
2022-11-10T18:04:33.111Z,102413.53
2022-11-10T18:08:14.693Z,102421.22
2022-11-10T18:11:56.969Z,102418.25
2022-11-10T18:15:37.677Z,102417.19
2022-11-10T18:19:18.459Z,102412.59
2022-11-10T18:23:01.019Z,102421.38
2022-11-10T18:26:41.779Z,102430.97
2022-11-10T18:30:23.804Z,102442.34
2022-11-10T18:34:04.250Z,102442.22
2022-11-10T18:37:45.160Z,102443.72
2022-11-10T18:41:43.248Z,102440.09
2022-11-10T18:45:29.968Z,102437.31
2022-11-10T18:49:11.387Z,102440.53
2022-11-10T18:52:51.540Z,102441.28
2022-11-10T18:56:31.918Z,102441.06
2022-11-10T19:00:15.334Z,102425.00
2022-11-10T19:03:57.631Z,102412.38
2022-11-10T19:07:38.506Z,102430.88
2022-11-10T19:11:20.246Z,102439.69
2022-11-10T19:15:01.021Z,102441.41
2022-11-10T19:18:43.258Z,102453.81
2022-11-10T19:22:25.222Z,102471.38
2022-11-10T19:26:07.771Z,102467.59
2022-11-10T19:29:48.363Z,102463.13
2022-11-10T19:33:30.634Z,102457.66
2022-11-10T19:37:16.155Z,102436.16
2022-11-10T19:41:10.862Z,102452.19
2022-11-10T19:50:01.572Z,102452.53
2022-11-10T19:53:43.580Z,102454.38
2022-11-10T19:57:25.418Z,102465.84
2022-11-10T20:01:06.749Z,102468.38
2022-11-10T20:05:05.047Z,102468.38
2022-11-10T20:08:48.380Z,102470.09
2022-11-10T20:13:23.082Z,102485.09
2022-11-10T20:17:17.286Z,102484.22
2022-11-10T20:21:03.475Z,102487.66
2022-11-10T20:24:49.939Z,102484.97
2022-11-10T20:28:32.031Z,102483.03
2022-11-10T20:32:13.809Z,102475.00
2022-11-10T20:35:55.375Z,102484.75
2022-11-10T20:39:35.822Z,102498.06
2022-11-10T20:43:16.206Z,102499.97
2022-11-10T20:46:56.914Z,102504.47
2022-11-10T20:50:42.163Z,102506.28
2022-11-10T20:54:22.742Z,102517.84
2022-11-10T20:58:03.157Z,102518.59
2022-11-10T21:01:44.531Z,102530.16
2022-11-10T21:05:25.292Z,102531.00
2022-11-10T21:09:07.796Z,102531.00
2022-11-10T21:12:51.308Z,102531.88
2022-11-10T21:16:31.746Z,102539.91
2022-11-10T21:20:12.885Z,102538.09
2022-11-10T21:23:57.365Z,102533.59
2022-11-10T21:27:39.233Z,102527.38
2022-11-10T21:31:19.634Z,102522.97
2022-11-10T21:34:59.785Z,102514.94
2022-11-10T21:38:40.343Z,102523.84
2022-11-10T21:42:21.868Z,102520.97
2022-11-10T21:46:06.730Z,102522.69
2022-11-10T21:49:47.770Z,102519.91
2022-11-10T21:53:44.824Z,102511.13
2022-11-10T21:57:25.178Z,102515.50
2022-11-10T22:01:09.091Z,102512.84
2022-11-10T22:04:50.048Z,102519.91
2022-11-10T22:08:30.771Z,102520.00
2022-11-10T22:12:31.264Z,102534.25
2022-11-10T22:16:41.042Z,102545.81
2022-11-10T22:20:25.519Z,102552.13
2022-11-10T22:24:24.614Z,102558.44
2022-11-10T22:28:05.879Z,102560.16
2022-11-10T22:31:48.670Z,102555.84
2022-11-10T22:35:47.469Z,102547.06
2022-11-10T22:39:48.385Z,102558.75
2022-11-10T22:43:46.184Z,102552.78
2022-11-10T22:47:49.073Z,102556.28
2022-11-10T22:51:31.394Z,102553.63
2022-11-10T22:55:11.803Z,102545.59
2022-11-10T22:58:56.973Z,102560.81
2022-11-10T23:02:41.399Z,102561.84
2022-11-10T23:06:22.210Z,102556.50
2022-11-10T23:10:02.523Z,102569.13
2022-11-10T23:13:43.766Z,102570.22
2022-11-10T23:17:24.427Z,102583.69
2022-11-10T23:21:09.356Z,102581.97
2022-11-10T23:24:55.740Z,102574.91
2022-11-10T23:28:38.971Z,102591.19
2022-11-10T23:32:20.707Z,102583.22
2022-11-10T23:36:01.971Z,102579.69
2022-11-10T23:39:44.234Z,102568.25
2022-11-10T23:43:25.773Z,102568.25
2022-11-10T23:47:06.468Z,102569.22
2022-11-10T23:50:47.187Z,102574.66
2022-11-10T23:54:28.001Z,102581.09
2022-11-10T23:58:10.305Z,102579.47
